sensor_id;sensor_type;location;lat;lon;timestamp;P1;durP1;ratioP1;P2;durP2;ratioP2
12350;SDS011;6240;51.538;7.696;2022-12-18T00:00:06;12.20;;;7.10;;
12350;SDS011;6240;51.538;7.696;2022-12-18T00:02:33;11.47;;;7.03;;
12350;SDS011;6240;51.538;7.696;2022-12-18T00:05:00;10.70;;;7.47;;
12350;SDS011;6240;51.538;7.696;2022-12-18T00:07:29;16.40;;;8.87;;
12350;SDS011;6240;51.538;7.696;2022-12-18T00:09:56;13.10;;;9.00;;
12350;SDS011;6240;51.538;7.696;2022-12-18T00:12:23;12.60;;;7.87;;
12350;SDS011;6240;51.538;7.696;2022-12-18T00:14:53;12.73;;;7.57;;
12350;SDS011;6240;51.538;7.696;2022-12-18T00:17:21;14.33;;;8.17;;
12350;SDS011;6240;51.538;7.696;2022-12-18T00:19:48;13.90;;;8.07;;
12350;SDS011;6240;51.538;7.696;2022-12-18T00:22:18;16.23;;;8.23;;
12350;SDS011;6240;51.538;7.696;2022-12-18T00:24:46;15.03;;;8.10;;
12350;SDS011;6240;51.538;7.696;2022-12-18T00:27:14;20.70;;;10.37;;
12350;SDS011;6240;51.538;7.696;2022-12-18T00:29:41;17.27;;;11.73;;
12350;SDS011;6240;51.538;7.696;2022-12-18T00:32:08;18.53;;;11.13;;
12350;SDS011;6240;51.538;7.696;2022-12-18T00:34:35;24.67;;;13.70;;
12350;SDS011;6240;51.538;7.696;2022-12-18T00:37:02;25.20;;;15.73;;
12350;SDS011;6240;51.538;7.696;2022-12-18T00:39:29;26.33;;;16.87;;
12350;SDS011;6240;51.538;7.696;2022-12-18T00:41:58;25.40;;;17.00;;
12350;SDS011;6240;51.538;7.696;2022-12-18T00:44:46;29.63;;;18.57;;
12350;SDS011;6240;51.538;7.696;2022-12-18T00:47:13;28.17;;;17.37;;
12350;SDS011;6240;51.538;7.696;2022-12-18T00:49:40;26.87;;;17.00;;
12350;SDS011;6240;51.538;7.696;2022-12-18T00:52:07;27.50;;;17.03;;
12350;SDS011;6240;51.538;7.696;2022-12-18T00:54:35;28.37;;;16.73;;
12350;SDS011;6240;51.538;7.696;2022-12-18T00:57:04;27.30;;;17.43;;
12350;SDS011;6240;51.538;7.696;2022-12-18T00:59:32;28.73;;;17.83;;
12350;SDS011;6240;51.538;7.696;2022-12-18T01:01:59;29.30;;;17.80;;
12350;SDS011;6240;51.538;7.696;2022-12-18T01:04:26;31.47;;;18.57;;
12350;SDS011;6240;51.538;7.696;2022-12-18T01:06:53;33.03;;;19.73;;
12350;SDS011;6240;51.538;7.696;2022-12-18T01:09:20;25.67;;;15.80;;
12350;SDS011;6240;51.538;7.696;2022-12-18T01:11:47;27.90;;;17.77;;
12350;SDS011;6240;51.538;7.696;2022-12-18T01:14:16;27.53;;;16.97;;
12350;SDS011;6240;51.538;7.696;2022-12-18T01:16:43;27.03;;;16.63;;
12350;SDS011;6240;51.538;7.696;2022-12-18T01:19:10;24.50;;;14.17;;
12350;SDS011;6240;51.538;7.696;2022-12-18T01:21:37;22.83;;;14.83;;
12350;SDS011;6240;51.538;7.696;2022-12-18T01:24:05;25.30;;;15.77;;
12350;SDS011;6240;51.538;7.696;2022-12-18T01:26:33;23.77;;;15.73;;
12350;SDS011;6240;51.538;7.696;2022-12-18T01:29:00;23.83;;;14.37;;
12350;SDS011;6240;51.538;7.696;2022-12-18T01:31:30;18.73;;;12.77;;
12350;SDS011;6240;51.538;7.696;2022-12-18T01:33:57;23.30;;;13.17;;
12350;SDS011;6240;51.538;7.696;2022-12-18T01:36:27;20.57;;;12.73;;
12350;SDS011;6240;51.538;7.696;2022-12-18T01:38:55;23.47;;;12.87;;
12350;SDS011;6240;51.538;7.696;2022-12-18T01:41:24;18.03;;;11.43;;
12350;SDS011;6240;51.538;7.696;2022-12-18T01:43:52;16.53;;;10.30;;
12350;SDS011;6240;51.538;7.696;2022-12-18T01:46:21;12.30;;;8.10;;
12350;SDS011;6240;51.538;7.696;2022-12-18T01:48:50;13.37;;;8.33;;
12350;SDS011;6240;51.538;7.696;2022-12-18T01:51:18;16.70;;;9.53;;
12350;SDS011;6240;51.538;7.696;2022-12-18T01:53:45;15.27;;;9.30;;
12350;SDS011;6240;51.538;7.696;2022-12-18T01:56:13;12.60;;;7.87;;
12350;SDS011;6240;51.538;7.696;2022-12-18T01:58:43;14.23;;;7.47;;
12350;SDS011;6240;51.538;7.696;2022-12-18T02:01:11;11.77;;;7.17;;
12350;SDS011;6240;51.538;7.696;2022-12-18T02:03:40;12.97;;;7.80;;
12350;SDS011;6240;51.538;7.696;2022-12-18T02:06:12;15.40;;;8.47;;
12350;SDS011;6240;51.538;7.696;2022-12-18T02:08:41;13.90;;;8.40;;
12350;SDS011;6240;51.538;7.696;2022-12-18T02:11:10;12.80;;;7.87;;
12350;SDS011;6240;51.538;7.696;2022-12-18T02:13:41;14.00;;;8.13;;
12350;SDS011;6240;51.538;7.696;2022-12-18T02:16:12;13.27;;;7.70;;
12350;SDS011;6240;51.538;7.696;2022-12-18T02:18:43;13.00;;;8.00;;
12350;SDS011;6240;51.538;7.696;2022-12-18T02:21:16;12.17;;;7.53;;
12350;SDS011;6240;51.538;7.696;2022-12-18T02:23:49;12.33;;;7.83;;
12350;SDS011;6240;51.538;7.696;2022-12-18T02:26:20;11.80;;;7.53;;
12350;SDS011;6240;51.538;7.696;2022-12-18T02:28:51;9.93;;;6.83;;
12350;SDS011;6240;51.538;7.696;2022-12-18T02:31:23;9.70;;;6.40;;
12350;SDS011;6240;51.538;7.696;2022-12-18T02:33:51;9.83;;;5.77;;
12350;SDS011;6240;51.538;7.696;2022-12-18T02:36:19;8.63;;;6.37;;
12350;SDS011;6240;51.538;7.696;2022-12-18T02:38:47;11.87;;;7.17;;
12350;SDS011;6240;51.538;7.696;2022-12-18T02:41:14;9.63;;;7.30;;
12350;SDS011;6240;51.538;7.696;2022-12-18T02:43:52;15.17;;;8.13;;
12350;SDS011;6240;51.538;7.696;2022-12-18T02:46:25;15.10;;;9.07;;
12350;SDS011;6240;51.538;7.696;2022-12-18T02:48:54;13.67;;;9.17;;
12350;SDS011;6240;51.538;7.696;2022-12-18T02:51:26;15.17;;;9.83;;
12350;SDS011;6240;51.538;7.696;2022-12-18T02:53:57;16.57;;;10.47;;
12350;SDS011;6240;51.538;7.696;2022-12-18T02:56:26;15.37;;;9.30;;
12350;SDS011;6240;51.538;7.696;2022-12-18T02:58:58;18.93;;;10.93;;
12350;SDS011;6240;51.538;7.696;2022-12-18T03:01:27;14.73;;;9.10;;
12350;SDS011;6240;51.538;7.696;2022-12-18T03:03:56;19.93;;;12.43;;
12350;SDS011;6240;51.538;7.696;2022-12-18T03:06:25;19.23;;;11.80;;
12350;SDS011;6240;51.538;7.696;2022-12-18T03:08:56;18.07;;;11.97;;
12350;SDS011;6240;51.538;7.696;2022-12-18T03:11:25;23.57;;;15.97;;
12350;SDS011;6240;51.538;7.696;2022-12-18T03:14:09;21.93;;;15.37;;
12350;SDS011;6240;51.538;7.696;2022-12-18T03:16:39;17.20;;;11.40;;
12350;SDS011;6240;51.538;7.696;2022-12-18T03:19:09;18.43;;;11.40;;
12350;SDS011;6240;51.538;7.696;2022-12-18T03:21:41;10.40;;;7.47;;
12350;SDS011;6240;51.538;7.696;2022-12-18T03:24:09;12.70;;;7.77;;
12350;SDS011;6240;51.538;7.696;2022-12-18T03:26:36;16.70;;;9.80;;
12350;SDS011;6240;51.538;7.696;2022-12-18T03:29:06;15.50;;;10.27;;
12350;SDS011;6240;51.538;7.696;2022-12-18T03:31:39;21.90;;;13.27;;
12350;SDS011;6240;51.538;7.696;2022-12-18T03:34:09;24.13;;;14.50;;
12350;SDS011;6240;51.538;7.696;2022-12-18T03:36:36;15.17;;;8.83;;
12350;SDS011;6240;51.538;7.696;2022-12-18T03:39:04;18.70;;;14.07;;
12350;SDS011;6240;51.538;7.696;2022-12-18T03:41:36;24.73;;;15.67;;
12350;SDS011;6240;51.538;7.696;2022-12-18T03:44:06;19.27;;;14.13;;
12350;SDS011;6240;51.538;7.696;2022-12-18T03:46:38;25.80;;;14.33;;
12350;SDS011;6240;51.538;7.696;2022-12-18T03:49:09;22.03;;;14.23;;
12350;SDS011;6240;51.538;7.696;2022-12-18T03:51:39;23.40;;;13.70;;
12350;SDS011;6240;51.538;7.696;2022-12-18T03:54:09;17.63;;;9.33;;
12350;SDS011;6240;51.538;7.696;2022-12-18T03:56:38;10.63;;;6.80;;
12350;SDS011;6240;51.538;7.696;2022-12-18T03:59:07;6.63;;;4.53;;
12350;SDS011;6240;51.538;7.696;2022-12-18T04:01:37;14.87;;;7.57;;
12350;SDS011;6240;51.538;7.696;2022-12-18T04:04:05;18.90;;;11.57;;
12350;SDS011;6240;51.538;7.696;2022-12-18T04:06:37;22.77;;;13.70;;
12350;SDS011;6240;51.538;7.696;2022-12-18T04:09:04;20.90;;;14.13;;
12350;SDS011;6240;51.538;7.696;2022-12-18T04:11:32;19.40;;;13.40;;
12350;SDS011;6240;51.538;7.696;2022-12-18T04:13:59;19.97;;;13.70;;
12350;SDS011;6240;51.538;7.696;2022-12-18T04:16:26;22.40;;;14.60;;
12350;SDS011;6240;51.538;7.696;2022-12-18T04:18:54;22.60;;;14.77;;
12350;SDS011;6240;51.538;7.696;2022-12-18T04:21:21;20.77;;;14.43;;
12350;SDS011;6240;51.538;7.696;2022-12-18T04:23:50;22.00;;;13.90;;
12350;SDS011;6240;51.538;7.696;2022-12-18T04:26:17;25.43;;;15.47;;
12350;SDS011;6240;51.538;7.696;2022-12-18T04:28:44;40.07;;;27.43;;
12350;SDS011;6240;51.538;7.696;2022-12-18T04:31:11;12.87;;;8.03;;
12350;SDS011;6240;51.538;7.696;2022-12-18T04:33:38;9.63;;;5.77;;
12350;SDS011;6240;51.538;7.696;2022-12-18T04:36:06;8.20;;;4.90;;
12350;SDS011;6240;51.538;7.696;2022-12-18T04:38:33;4.90;;;3.47;;
12350;SDS011;6240;51.538;7.696;2022-12-18T04:41:02;8.77;;;5.53;;
12350;SDS011;6240;51.538;7.696;2022-12-18T04:43:29;8.40;;;6.23;;
12350;SDS011;6240;51.538;7.696;2022-12-18T04:46:01;7.77;;;5.47;;
12350;SDS011;6240;51.538;7.696;2022-12-18T04:48:28;7.63;;;5.83;;
12350;SDS011;6240;51.538;7.696;2022-12-18T04:50:55;13.47;;;8.93;;
12350;SDS011;6240;51.538;7.696;2022-12-18T04:53:22;14.47;;;9.13;;
12350;SDS011;6240;51.538;7.696;2022-12-18T04:55:50;15.73;;;10.97;;
12350;SDS011;6240;51.538;7.696;2022-12-18T04:58:18;12.93;;;8.27;;
12350;SDS011;6240;51.538;7.696;2022-12-18T05:00:46;13.40;;;8.07;;
12350;SDS011;6240;51.538;7.696;2022-12-18T05:03:13;11.67;;;7.97;;
12350;SDS011;6240;51.538;7.696;2022-12-18T05:05:40;10.80;;;7.37;;
12350;SDS011;6240;51.538;7.696;2022-12-18T05:08:07;12.33;;;7.83;;
12350;SDS011;6240;51.538;7.696;2022-12-18T05:10:34;10.60;;;6.33;;
12350;SDS011;6240;51.538;7.696;2022-12-18T05:13:01;7.17;;;5.17;;
12350;SDS011;6240;51.538;7.696;2022-12-18T05:15:30;8.57;;;4.83;;
12350;SDS011;6240;51.538;7.696;2022-12-18T05:18:00;5.20;;;3.37;;
12350;SDS011;6240;51.538;7.696;2022-12-18T05:20:31;3.60;;;3.07;;
12350;SDS011;6240;51.538;7.696;2022-12-18T05:22:58;4.97;;;3.27;;
12350;SDS011;6240;51.538;7.696;2022-12-18T05:25:25;5.67;;;3.77;;
12350;SDS011;6240;51.538;7.696;2022-12-18T05:27:52;7.10;;;5.10;;
12350;SDS011;6240;51.538;7.696;2022-12-18T05:30:19;7.20;;;5.23;;
12350;SDS011;6240;51.538;7.696;2022-12-18T05:32:48;8.00;;;5.40;;
12350;SDS011;6240;51.538;7.696;2022-12-18T05:35:16;9.23;;;6.47;;
12350;SDS011;6240;51.538;7.696;2022-12-18T05:37:43;9.73;;;6.53;;
12350;SDS011;6240;51.538;7.696;2022-12-18T05:40:11;10.67;;;7.47;;
12350;SDS011;6240;51.538;7.696;2022-12-18T05:42:38;10.80;;;7.47;;
12350;SDS011;6240;51.538;7.696;2022-12-18T05:45:06;9.57;;;7.70;;
12350;SDS011;6240;51.538;7.696;2022-12-18T05:47:33;9.20;;;5.80;;
12350;SDS011;6240;51.538;7.696;2022-12-18T05:50:02;15.07;;;8.63;;
12350;SDS011;6240;51.538;7.696;2022-12-18T05:52:29;9.57;;;7.23;;
12350;SDS011;6240;51.538;7.696;2022-12-18T05:54:57;14.67;;;10.37;;
12350;SDS011;6240;51.538;7.696;2022-12-18T05:57:25;12.77;;;9.37;;
12350;SDS011;6240;51.538;7.696;2022-12-18T05:59:52;15.23;;;8.50;;
12350;SDS011;6240;51.538;7.696;2022-12-18T06:02:19;13.20;;;8.20;;
12350;SDS011;6240;51.538;7.696;2022-12-18T06:04:46;12.07;;;8.07;;
12350;SDS011;6240;51.538;7.696;2022-12-18T06:07:15;13.50;;;8.63;;
12350;SDS011;6240;51.538;7.696;2022-12-18T06:09:42;13.03;;;8.17;;
12350;SDS011;6240;51.538;7.696;2022-12-18T06:12:09;11.57;;;8.13;;
12350;SDS011;6240;51.538;7.696;2022-12-18T06:14:37;13.00;;;8.03;;
12350;SDS011;6240;51.538;7.696;2022-12-18T06:17:04;13.50;;;8.37;;
12350;SDS011;6240;51.538;7.696;2022-12-18T06:19:31;13.20;;;8.33;;
12350;SDS011;6240;51.538;7.696;2022-12-18T06:21:58;11.80;;;8.60;;
12350;SDS011;6240;51.538;7.696;2022-12-18T06:24:27;9.97;;;6.00;;
12350;SDS011;6240;51.538;7.696;2022-12-18T06:26:54;10.53;;;6.30;;
12350;SDS011;6240;51.538;7.696;2022-12-18T06:29:21;8.80;;;5.10;;
12350;SDS011;6240;51.538;7.696;2022-12-18T06:31:48;9.77;;;6.50;;
12350;SDS011;6240;51.538;7.696;2022-12-18T06:34:15;11.43;;;7.00;;
12350;SDS011;6240;51.538;7.696;2022-12-18T06:36:43;9.83;;;6.77;;
12350;SDS011;6240;51.538;7.696;2022-12-18T06:39:10;12.37;;;7.57;;
12350;SDS011;6240;51.538;7.696;2022-12-18T06:41:38;10.80;;;7.07;;
12350;SDS011;6240;51.538;7.696;2022-12-18T06:44:06;12.70;;;7.67;;
12350;SDS011;6240;51.538;7.696;2022-12-18T06:46:33;11.43;;;8.90;;
12350;SDS011;6240;51.538;7.696;2022-12-18T06:49:00;13.90;;;9.53;;
12350;SDS011;6240;51.538;7.696;2022-12-18T06:51:27;15.50;;;10.70;;
12350;SDS011;6240;51.538;7.696;2022-12-18T06:53:54;13.80;;;8.73;;
12350;SDS011;6240;51.538;7.696;2022-12-18T06:56:21;11.97;;;8.57;;
12350;SDS011;6240;51.538;7.696;2022-12-18T06:58:53;14.00;;;8.40;;
12350;SDS011;6240;51.538;7.696;2022-12-18T07:01:20;14.60;;;7.67;;
12350;SDS011;6240;51.538;7.696;2022-12-18T07:03:51;12.70;;;8.63;;
12350;SDS011;6240;51.538;7.696;2022-12-18T07:06:19;12.67;;;8.60;;
12350;SDS011;6240;51.538;7.696;2022-12-18T07:08:47;10.10;;;7.47;;
12350;SDS011;6240;51.538;7.696;2022-12-18T07:11:15;11.87;;;7.77;;
12350;SDS011;6240;51.538;7.696;2022-12-18T07:13:44;11.73;;;7.07;;
12350;SDS011;6240;51.538;7.696;2022-12-18T07:16:13;10.63;;;7.70;;
12350;SDS011;6240;51.538;7.696;2022-12-18T07:18:40;8.37;;;5.30;;
12350;SDS011;6240;51.538;7.696;2022-12-18T07:21:08;8.67;;;6.10;;
12350;SDS011;6240;51.538;7.696;2022-12-18T07:23:35;9.07;;;5.80;;
12350;SDS011;6240;51.538;7.696;2022-12-18T07:26:03;8.87;;;5.67;;
12350;SDS011;6240;51.538;7.696;2022-12-18T07:28:30;8.17;;;5.47;;
12350;SDS011;6240;51.538;7.696;2022-12-18T07:30:57;8.80;;;5.67;;
12350;SDS011;6240;51.538;7.696;2022-12-18T07:33:26;10.43;;;6.20;;
12350;SDS011;6240;51.538;7.696;2022-12-18T07:35:53;9.47;;;6.23;;
12350;SDS011;6240;51.538;7.696;2022-12-18T07:38:20;10.30;;;6.63;;
12350;SDS011;6240;51.538;7.696;2022-12-18T07:40:47;9.90;;;5.97;;
12350;SDS011;6240;51.538;7.696;2022-12-18T07:43:17;8.47;;;5.67;;
12350;SDS011;6240;51.538;7.696;2022-12-18T07:45:44;10.43;;;6.40;;
12350;SDS011;6240;51.538;7.696;2022-12-18T07:48:11;7.57;;;5.93;;
12350;SDS011;6240;51.538;7.696;2022-12-18T07:50:40;8.73;;;5.93;;
12350;SDS011;6240;51.538;7.696;2022-12-18T07:53:07;10.47;;;6.80;;
12350;SDS011;6240;51.538;7.696;2022-12-18T07:55:34;12.90;;;6.57;;
12350;SDS011;6240;51.538;7.696;2022-12-18T07:58:01;12.53;;;6.67;;
12350;SDS011;6240;51.538;7.696;2022-12-18T08:00:29;10.00;;;7.40;;
12350;SDS011;6240;51.538;7.696;2022-12-18T08:02:56;9.97;;;6.53;;
12350;SDS011;6240;51.538;7.696;2022-12-18T08:05:23;9.97;;;6.43;;
12350;SDS011;6240;51.538;7.696;2022-12-18T08:07:52;10.63;;;6.53;;
12350;SDS011;6240;51.538;7.696;2022-12-18T08:10:20;13.73;;;7.40;;
12350;SDS011;6240;51.538;7.696;2022-12-18T08:12:48;10.47;;;7.60;;
12350;SDS011;6240;51.538;7.696;2022-12-18T08:15:16;11.27;;;7.23;;
12350;SDS011;6240;51.538;7.696;2022-12-18T08:17:43;11.47;;;7.80;;
12350;SDS011;6240;51.538;7.696;2022-12-18T08:20:10;12.27;;;8.40;;
12350;SDS011;6240;51.538;7.696;2022-12-18T08:22:40;17.20;;;9.10;;
12350;SDS011;6240;51.538;7.696;2022-12-18T08:25:10;12.83;;;8.43;;
12350;SDS011;6240;51.538;7.696;2022-12-18T08:27:37;13.10;;;8.03;;
12350;SDS011;6240;51.538;7.696;2022-12-18T08:30:05;13.30;;;8.37;;
12350;SDS011;6240;51.538;7.696;2022-12-18T08:32:32;12.40;;;8.30;;
12350;SDS011;6240;51.538;7.696;2022-12-18T08:34:59;10.07;;;7.40;;
12350;SDS011;6240;51.538;7.696;2022-12-18T08:37:26;9.57;;;6.80;;
12350;SDS011;6240;51.538;7.696;2022-12-18T08:39:54;11.57;;;7.40;;
12350;SDS011;6240;51.538;7.696;2022-12-18T08:42:24;11.17;;;6.73;;
12350;SDS011;6240;51.538;7.696;2022-12-18T08:45:09;9.53;;;6.20;;
12350;SDS011;6240;51.538;7.696;2022-12-18T08:47:39;11.53;;;6.97;;
12350;SDS011;6240;51.538;7.696;2022-12-18T08:50:06;12.97;;;7.67;;
12350;SDS011;6240;51.538;7.696;2022-12-18T08:52:36;11.53;;;7.60;;
12350;SDS011;6240;51.538;7.696;2022-12-18T08:55:03;10.03;;;7.00;;
12350;SDS011;6240;51.538;7.696;2022-12-18T08:57:32;10.13;;;6.47;;
12350;SDS011;6240;51.538;7.696;2022-12-18T08:59:59;11.07;;;6.80;;
12350;SDS011;6240;51.538;7.696;2022-12-18T09:02:28;13.40;;;7.03;;
12350;SDS011;6240;51.538;7.696;2022-12-18T09:04:55;8.83;;;5.93;;
12350;SDS011;6240;51.538;7.696;2022-12-18T09:07:22;10.77;;;6.43;;
12350;SDS011;6240;51.538;7.696;2022-12-18T09:09:49;10.73;;;7.00;;
12350;SDS011;6240;51.538;7.696;2022-12-18T09:12:16;10.13;;;7.20;;
12350;SDS011;6240;51.538;7.696;2022-12-18T09:14:45;12.33;;;7.77;;
12350;SDS011;6240;51.538;7.696;2022-12-18T09:17:12;13.07;;;8.20;;
12350;SDS011;6240;51.538;7.696;2022-12-18T09:19:39;12.03;;;8.43;;
12350;SDS011;6240;51.538;7.696;2022-12-18T09:22:07;13.13;;;8.50;;
12350;SDS011;6240;51.538;7.696;2022-12-18T09:24:34;11.63;;;8.33;;
12350;SDS011;6240;51.538;7.696;2022-12-18T09:27:01;13.67;;;9.13;;
12350;SDS011;6240;51.538;7.696;2022-12-18T09:29:29;10.93;;;7.77;;
12350;SDS011;6240;51.538;7.696;2022-12-18T09:31:57;15.27;;;8.63;;
12350;SDS011;6240;51.538;7.696;2022-12-18T09:34:24;12.27;;;8.00;;
12350;SDS011;6240;51.538;7.696;2022-12-18T09:36:51;15.30;;;8.73;;
12350;SDS011;6240;51.538;7.696;2022-12-18T09:39:19;12.90;;;7.77;;
12350;SDS011;6240;51.538;7.696;2022-12-18T09:41:46;13.30;;;8.90;;
12350;SDS011;6240;51.538;7.696;2022-12-18T09:44:19;13.30;;;8.30;;
12350;SDS011;6240;51.538;7.696;2022-12-18T09:46:49;13.20;;;7.77;;
12350;SDS011;6240;51.538;7.696;2022-12-18T09:49:20;10.80;;;7.00;;
12350;SDS011;6240;51.538;7.696;2022-12-18T09:51:49;10.30;;;7.30;;
12350;SDS011;6240;51.538;7.696;2022-12-18T09:54:18;17.17;;;9.13;;
12350;SDS011;6240;51.538;7.696;2022-12-18T09:56:47;28.47;;;15.67;;
12350;SDS011;6240;51.538;7.696;2022-12-18T09:59:18;26.77;;;14.57;;
12350;SDS011;6240;51.538;7.696;2022-12-18T10:01:49;16.97;;;10.63;;
12350;SDS011;6240;51.538;7.696;2022-12-18T10:04:32;15.30;;;10.27;;
12350;SDS011;6240;51.538;7.696;2022-12-18T10:07:00;15.73;;;9.67;;
12350;SDS011;6240;51.538;7.696;2022-12-18T10:09:31;15.50;;;8.13;;
12350;SDS011;6240;51.538;7.696;2022-12-18T10:12:02;10.70;;;6.83;;
12350;SDS011;6240;51.538;7.696;2022-12-18T10:14:33;9.67;;;6.73;;
12350;SDS011;6240;51.538;7.696;2022-12-18T10:17:02;9.60;;;6.53;;
12350;SDS011;6240;51.538;7.696;2022-12-18T10:19:41;9.37;;;6.37;;
12350;SDS011;6240;51.538;7.696;2022-12-18T10:22:18;10.30;;;6.23;;
12350;SDS011;6240;51.538;7.696;2022-12-18T10:24:52;10.80;;;6.03;;
12350;SDS011;6240;51.538;7.696;2022-12-18T10:27:21;7.50;;;4.27;;
12350;SDS011;6240;51.538;7.696;2022-12-18T10:29:49;6.90;;;4.43;;
12350;SDS011;6240;51.538;7.696;2022-12-18T10:32:17;6.47;;;4.37;;
12350;SDS011;6240;51.538;7.696;2022-12-18T10:34:47;6.07;;;3.63;;
12350;SDS011;6240;51.538;7.696;2022-12-18T10:37:16;6.00;;;3.40;;
12350;SDS011;6240;51.538;7.696;2022-12-18T10:39:44;5.80;;;4.03;;
12350;SDS011;6240;51.538;7.696;2022-12-18T10:42:14;7.00;;;4.57;;
12350;SDS011;6240;51.538;7.696;2022-12-18T10:44:42;7.87;;;4.90;;
12350;SDS011;6240;51.538;7.696;2022-12-18T10:47:11;6.83;;;4.30;;
12350;SDS011;6240;51.538;7.696;2022-12-18T10:49:40;5.23;;;3.43;;
12350;SDS011;6240;51.538;7.696;2022-12-18T10:52:14;5.30;;;4.13;;
12350;SDS011;6240;51.538;7.696;2022-12-18T10:54:45;22.93;;;9.50;;
12350;SDS011;6240;51.538;7.696;2022-12-18T10:57:14;26.43;;;11.43;;
12350;SDS011;6240;51.538;7.696;2022-12-18T10:59:50;32.37;;;12.50;;
12350;SDS011;6240;51.538;7.696;2022-12-18T11:02:24;17.90;;;8.70;;
12350;SDS011;6240;51.538;7.696;2022-12-18T11:04:53;15.40;;;7.90;;
12350;SDS011;6240;51.538;7.696;2022-12-18T11:07:21;10.97;;;7.23;;
12350;SDS011;6240;51.538;7.696;2022-12-18T11:09:59;10.43;;;7.03;;
12350;SDS011;6240;51.538;7.696;2022-12-18T11:12:26;9.57;;;6.87;;
12350;SDS011;6240;51.538;7.696;2022-12-18T11:14:57;9.53;;;6.73;;
12350;SDS011;6240;51.538;7.696;2022-12-18T11:17:28;10.00;;;6.33;;
12350;SDS011;6240;51.538;7.696;2022-12-18T11:19:56;9.03;;;6.53;;
12350;SDS011;6240;51.538;7.696;2022-12-18T11:22:25;8.07;;;6.00;;
12350;SDS011;6240;51.538;7.696;2022-12-18T11:24:54;8.63;;;6.40;;
12350;SDS011;6240;51.538;7.696;2022-12-18T11:27:22;9.07;;;6.67;;
12350;SDS011;6240;51.538;7.696;2022-12-18T11:29:50;6.23;;;4.37;;
12350;SDS011;6240;51.538;7.696;2022-12-18T11:32:31;5.27;;;3.60;;
12350;SDS011;6240;51.538;7.696;2022-12-18T11:35:02;6.43;;;4.23;;
12350;SDS011;6240;51.538;7.696;2022-12-18T11:37:32;4.00;;;3.40;;
12350;SDS011;6240;51.538;7.696;2022-12-18T11:40:00;4.90;;;3.67;;
12350;SDS011;6240;51.538;7.696;2022-12-18T11:42:30;3.27;;;2.70;;
12350;SDS011;6240;51.538;7.696;2022-12-18T11:45:00;6.50;;;3.90;;
12350;SDS011;6240;51.538;7.696;2022-12-18T11:47:31;4.27;;;3.53;;
12350;SDS011;6240;51.538;7.696;2022-12-18T11:50:01;8.30;;;5.37;;
12350;SDS011;6240;51.538;7.696;2022-12-18T11:52:30;9.33;;;5.87;;
12350;SDS011;6240;51.538;7.696;2022-12-18T11:55:09;10.37;;;8.13;;
12350;SDS011;6240;51.538;7.696;2022-12-18T11:57:39;5.13;;;4.10;;
12350;SDS011;6240;51.538;7.696;2022-12-18T12:00:20;7.77;;;5.03;;
12350;SDS011;6240;51.538;7.696;2022-12-18T12:02:59;8.13;;;6.17;;
12350;SDS011;6240;51.538;7.696;2022-12-18T12:05:36;11.30;;;6.27;;
12350;SDS011;6240;51.538;7.696;2022-12-18T12:08:09;13.57;;;6.53;;
12350;SDS011;6240;51.538;7.696;2022-12-18T12:10:45;13.07;;;6.30;;
12350;SDS011;6240;51.538;7.696;2022-12-18T12:16:04;14.20;;;7.27;;
12350;SDS011;6240;51.538;7.696;2022-12-18T12:18:40;8.53;;;5.10;;
12350;SDS011;6240;51.538;7.696;2022-12-18T12:21:12;9.43;;;6.60;;
12350;SDS011;6240;51.538;7.696;2022-12-18T12:23:44;14.00;;;9.00;;
12350;SDS011;6240;51.538;7.696;2022-12-18T12:26:18;11.10;;;7.90;;
12350;SDS011;6240;51.538;7.696;2022-12-18T12:28:55;16.27;;;9.10;;
12350;SDS011;6240;51.538;7.696;2022-12-18T12:31:27;13.20;;;8.27;;
12350;SDS011;6240;51.538;7.696;2022-12-18T12:33:59;10.57;;;7.00;;
12350;SDS011;6240;51.538;7.696;2022-12-18T12:36:31;8.07;;;6.13;;
12350;SDS011;6240;51.538;7.696;2022-12-18T12:39:01;11.57;;;6.87;;
12350;SDS011;6240;51.538;7.696;2022-12-18T12:41:31;12.00;;;8.47;;
12350;SDS011;6240;51.538;7.696;2022-12-18T12:44:14;11.70;;;7.93;;
12350;SDS011;6240;51.538;7.696;2022-12-18T12:46:43;10.87;;;7.40;;
12350;SDS011;6240;51.538;7.696;2022-12-18T12:49:11;10.60;;;6.93;;
12350;SDS011;6240;51.538;7.696;2022-12-18T12:51:41;10.43;;;6.97;;
12350;SDS011;6240;51.538;7.696;2022-12-18T12:54:11;11.27;;;7.13;;
12350;SDS011;6240;51.538;7.696;2022-12-18T12:56:42;9.17;;;6.47;;
12350;SDS011;6240;51.538;7.696;2022-12-18T12:59:13;10.87;;;7.40;;
12350;SDS011;6240;51.538;7.696;2022-12-18T13:01:52;9.53;;;7.03;;
12350;SDS011;6240;51.538;7.696;2022-12-18T13:04:21;9.60;;;6.87;;
12350;SDS011;6240;51.538;7.696;2022-12-18T13:06:53;9.17;;;6.77;;
12350;SDS011;6240;51.538;7.696;2022-12-18T13:09:23;10.83;;;8.17;;
12350;SDS011;6240;51.538;7.696;2022-12-18T13:11:51;10.40;;;8.37;;
12350;SDS011;6240;51.538;7.696;2022-12-18T13:14:37;12.30;;;8.30;;
12350;SDS011;6240;51.538;7.696;2022-12-18T13:17:14;11.10;;;7.47;;
12350;SDS011;6240;51.538;7.696;2022-12-18T13:19:41;9.73;;;7.03;;
12350;SDS011;6240;51.538;7.696;2022-12-18T13:22:20;10.50;;;7.57;;
12350;SDS011;6240;51.538;7.696;2022-12-18T13:24:47;9.17;;;6.80;;
12350;SDS011;6240;51.538;7.696;2022-12-18T13:32:56;10.43;;;7.03;;
12350;SDS011;6240;51.538;7.696;2022-12-18T13:35:50;14.57;;;9.30;;
12350;SDS011;6240;51.538;7.696;2022-12-18T13:38:20;15.83;;;9.87;;
12350;SDS011;6240;51.538;7.696;2022-12-18T13:40:55;14.17;;;9.50;;
12350;SDS011;6240;51.538;7.696;2022-12-18T13:43:24;13.87;;;9.43;;
12350;SDS011;6240;51.538;7.696;2022-12-18T13:46:00;11.37;;;8.67;;
12350;SDS011;6240;51.538;7.696;2022-12-18T13:48:32;11.93;;;8.20;;
12350;SDS011;6240;51.538;7.696;2022-12-18T13:51:01;10.70;;;8.13;;
12350;SDS011;6240;51.538;7.696;2022-12-18T13:53:30;11.93;;;8.57;;
12350;SDS011;6240;51.538;7.696;2022-12-18T13:55:59;14.90;;;10.37;;
12350;SDS011;6240;51.538;7.696;2022-12-18T13:58:27;12.37;;;9.30;;
12350;SDS011;6240;51.538;7.696;2022-12-18T14:00:54;14.47;;;9.30;;
12350;SDS011;6240;51.538;7.696;2022-12-18T14:03:24;13.20;;;9.67;;
12350;SDS011;6240;51.538;7.696;2022-12-18T14:05:54;13.43;;;9.37;;
12350;SDS011;6240;51.538;7.696;2022-12-18T14:08:25;15.97;;;11.33;;
12350;SDS011;6240;51.538;7.696;2022-12-18T14:10:55;16.63;;;10.60;;
12350;SDS011;6240;51.538;7.696;2022-12-18T14:13:24;16.50;;;11.50;;
12350;SDS011;6240;51.538;7.696;2022-12-18T14:15:51;11.43;;;9.20;;
12350;SDS011;6240;51.538;7.696;2022-12-18T14:18:20;17.43;;;10.70;;
12350;SDS011;6240;51.538;7.696;2022-12-18T14:20:49;19.73;;;11.33;;
12350;SDS011;6240;51.538;7.696;2022-12-18T14:23:28;18.77;;;12.33;;
12350;SDS011;6240;51.538;7.696;2022-12-18T14:25:55;16.07;;;10.77;;
12350;SDS011;6240;51.538;7.696;2022-12-18T14:28:22;19.73;;;11.90;;
12350;SDS011;6240;51.538;7.696;2022-12-18T14:30:51;15.33;;;11.73;;
12350;SDS011;6240;51.538;7.696;2022-12-18T14:33:19;16.60;;;11.13;;
12350;SDS011;6240;51.538;7.696;2022-12-18T14:35:53;17.03;;;11.47;;
12350;SDS011;6240;51.538;7.696;2022-12-18T14:38:22;13.10;;;8.77;;
12350;SDS011;6240;51.538;7.696;2022-12-18T14:40:55;14.43;;;9.20;;
12350;SDS011;6240;51.538;7.696;2022-12-18T14:43:23;11.10;;;7.80;;
12350;SDS011;6240;51.538;7.696;2022-12-18T14:45:52;8.00;;;5.90;;
12350;SDS011;6240;51.538;7.696;2022-12-18T14:48:22;9.23;;;5.93;;
12350;SDS011;6240;51.538;7.696;2022-12-18T14:50:56;5.07;;;4.20;;
12350;SDS011;6240;51.538;7.696;2022-12-18T14:53:31;6.53;;;4.30;;
12350;SDS011;6240;51.538;7.696;2022-12-18T14:56:00;8.70;;;5.37;;
12350;SDS011;6240;51.538;7.696;2022-12-18T14:58:27;12.33;;;8.40;;
12350;SDS011;6240;51.538;7.696;2022-12-18T15:00:55;7.03;;;4.50;;
12350;SDS011;6240;51.538;7.696;2022-12-18T15:03:22;7.30;;;4.57;;
12350;SDS011;6240;51.538;7.696;2022-12-18T15:05:49;6.80;;;4.67;;
12350;SDS011;6240;51.538;7.696;2022-12-18T15:08:30;5.33;;;4.33;;